sensor_id;sensor_type;location;lat;lon;timestamp;temperature;humidity
21682;DHT22;11002;48.256;10.084;2023-08-17T00:02:11;19.90;62.30
21682;DHT22;11002;48.256;10.084;2023-08-17T00:04:40;19.80;62.50
21682;DHT22;11002;48.256;10.084;2023-08-17T00:07:07;19.80;62.50
21682;DHT22;11002;48.256;10.084;2023-08-17T00:09:34;19.80;62.50
21682;DHT22;11002;48.256;10.084;2023-08-17T00:12:02;19.70;62.70
21682;DHT22;11002;48.256;10.084;2023-08-17T00:14:30;19.70;62.90
21682;DHT22;11002;48.256;10.084;2023-08-17T00:16:57;19.70;63.30
21682;DHT22;11002;48.256;10.084;2023-08-17T00:19:25;19.60;63.60
21682;DHT22;11002;48.256;10.084;2023-08-17T00:21:53;19.50;64.10
21682;DHT22;11002;48.256;10.084;2023-08-17T00:24:22;19.50;64.50
21682;DHT22;11002;48.256;10.084;2023-08-17T00:26:49;19.40;65.20
21682;DHT22;11002;48.256;10.084;2023-08-17T00:29:16;19.40;66.00
21682;DHT22;11002;48.256;10.084;2023-08-17T00:31:44;19.30;66.70
21682;DHT22;11002;48.256;10.084;2023-08-17T00:34:12;19.20;67.20
21682;DHT22;11002;48.256;10.084;2023-08-17T00:36:40;19.10;68.10
21682;DHT22;11002;48.256;10.084;2023-08-17T00:39:08;19.10;69.40
21682;DHT22;11002;48.256;10.084;2023-08-17T00:41:36;19.00;69.30
21682;DHT22;11002;48.256;10.084;2023-08-17T00:44:03;19.00;70.40
21682;DHT22;11002;48.256;10.084;2023-08-17T00:46:31;19.00;70.20
21682;DHT22;11002;48.256;10.084;2023-08-17T00:48:59;19.00;69.70
21682;DHT22;11002;48.256;10.084;2023-08-17T00:51:26;19.10;69.70
21682;DHT22;11002;48.256;10.084;2023-08-17T00:53:57;19.10;69.30
21682;DHT22;11002;48.256;10.084;2023-08-17T00:56:27;19.10;68.80
21682;DHT22;11002;48.256;10.084;2023-08-17T00:58:55;19.10;68.60
21682;DHT22;11002;48.256;10.084;2023-08-17T01:01:23;19.10;68.70
21682;DHT22;11002;48.256;10.084;2023-08-17T01:03:50;19.10;68.90
21682;DHT22;11002;48.256;10.084;2023-08-17T01:06:18;19.10;69.00
21682;DHT22;11002;48.256;10.084;2023-08-17T01:08:45;19.10;68.90
21682;DHT22;11002;48.256;10.084;2023-08-17T01:11:19;19.10;69.30
21682;DHT22;11002;48.256;10.084;2023-08-17T01:13:53;19.10;69.10
21682;DHT22;11002;48.256;10.084;2023-08-17T01:16:28;19.00;68.90
21682;DHT22;11002;48.256;10.084;2023-08-17T01:18:58;18.90;69.40
21682;DHT22;11002;48.256;10.084;2023-08-17T01:21:33;18.80;70.00
21682;DHT22;11002;48.256;10.084;2023-08-17T01:24:05;18.80;70.40
21682;DHT22;11002;48.256;10.084;2023-08-17T01:26:32;18.80;71.00
21682;DHT22;11002;48.256;10.084;2023-08-17T01:29:00;18.70;72.50
21682;DHT22;11002;48.256;10.084;2023-08-17T01:31:31;18.70;74.40
21682;DHT22;11002;48.256;10.084;2023-08-17T01:34:05;18.70;73.60
21682;DHT22;11002;48.256;10.084;2023-08-17T01:36:35;18.70;73.60
21682;DHT22;11002;48.256;10.084;2023-08-17T01:39:08;18.70;73.40
21682;DHT22;11002;48.256;10.084;2023-08-17T01:41:38;18.60;72.50
21682;DHT22;11002;48.256;10.084;2023-08-17T01:44:06;18.70;72.40
21682;DHT22;11002;48.256;10.084;2023-08-17T01:46:33;18.60;71.90
21682;DHT22;11002;48.256;10.084;2023-08-17T01:49:00;18.60;71.90
21682;DHT22;11002;48.256;10.084;2023-08-17T01:51:30;18.60;71.90
21682;DHT22;11002;48.256;10.084;2023-08-17T01:53:57;18.60;72.10
21682;DHT22;11002;48.256;10.084;2023-08-17T01:56:26;18.50;72.20
21682;DHT22;11002;48.256;10.084;2023-08-17T01:58:53;18.50;72.10
21682;DHT22;11002;48.256;10.084;2023-08-17T02:01:22;18.50;72.60
21682;DHT22;11002;48.256;10.084;2023-08-17T02:03:49;18.50;72.40
21682;DHT22;11002;48.256;10.084;2023-08-17T02:06:17;18.40;73.30
21682;DHT22;11002;48.256;10.084;2023-08-17T02:08:45;18.50;73.40
21682;DHT22;11002;48.256;10.084;2023-08-17T02:11:14;18.50;73.40
21682;DHT22;11002;48.256;10.084;2023-08-17T02:13:43;18.50;73.40
21682;DHT22;11002;48.256;10.084;2023-08-17T02:16:10;18.50;73.40
21682;DHT22;11002;48.256;10.084;2023-08-17T02:18:37;18.50;73.40
21682;DHT22;11002;48.256;10.084;2023-08-17T02:21:05;18.50;73.40
21682;DHT22;11002;48.256;10.084;2023-08-17T02:23:32;18.50;73.40
21682;DHT22;11002;48.256;10.084;2023-08-17T02:25:59;18.50;73.40
21682;DHT22;11002;48.256;10.084;2023-08-17T02:28:26;18.40;73.30
21682;DHT22;11002;48.256;10.084;2023-08-17T02:30:57;18.40;73.30
21682;DHT22;11002;48.256;10.084;2023-08-17T02:33:27;18.40;73.30
21682;DHT22;11002;48.256;10.084;2023-08-17T02:35:54;18.30;73.20
21682;DHT22;11002;48.256;10.084;2023-08-17T02:38:22;18.30;74.00
21682;DHT22;11002;48.256;10.084;2023-08-17T02:40:50;18.30;73.20
21682;DHT22;11002;48.256;10.084;2023-08-17T02:43:17;18.30;73.20
21682;DHT22;11002;48.256;10.084;2023-08-17T02:45:44;18.30;73.70
21682;DHT22;11002;48.256;10.084;2023-08-17T02:48:13;18.20;74.40
21682;DHT22;11002;48.256;10.084;2023-08-17T02:50:40;18.30;74.40
21682;DHT22;11002;48.256;10.084;2023-08-17T02:53:08;18.20;74.30
21682;DHT22;11002;48.256;10.084;2023-08-17T02:55:35;18.30;74.10
21682;DHT22;11002;48.256;10.084;2023-08-17T02:58:02;18.20;74.20
21682;DHT22;11002;48.256;10.084;2023-08-17T03:00:30;18.20;74.20
21682;DHT22;11002;48.256;10.084;2023-08-17T03:02:57;18.20;74.30
21682;DHT22;11002;48.256;10.084;2023-08-17T03:05:26;18.10;74.50
21682;DHT22;11002;48.256;10.084;2023-08-17T03:07:54;18.10;75.10
21682;DHT22;11002;48.256;10.084;2023-08-17T03:10:22;18.00;76.20
21682;DHT22;11002;48.256;10.084;2023-08-17T03:12:50;18.00;77.20
21682;DHT22;11002;48.256;10.084;2023-08-17T03:15:18;18.00;77.90
21682;DHT22;11002;48.256;10.084;2023-08-17T03:17:45;18.00;79.20
21682;DHT22;11002;48.256;10.084;2023-08-17T03:20:12;18.00;79.70
21682;DHT22;11002;48.256;10.084;2023-08-17T03:22:41;18.00;80.70
21682;DHT22;11002;48.256;10.084;2023-08-17T03:25:09;18.00;81.10
21682;DHT22;11002;48.256;10.084;2023-08-17T03:27:37;18.00;80.80
21682;DHT22;11002;48.256;10.084;2023-08-17T03:30:05;17.90;80.20
21682;DHT22;11002;48.256;10.084;2023-08-17T03:32:33;17.90;80.10
21682;DHT22;11002;48.256;10.084;2023-08-17T03:35:00;17.90;80.00
21682;DHT22;11002;48.256;10.084;2023-08-17T03:37:28;17.90;79.50
21682;DHT22;11002;48.256;10.084;2023-08-17T03:39:57;17.80;79.90
21682;DHT22;11002;48.256;10.084;2023-08-17T03:42:24;17.80;80.80
21682;DHT22;11002;48.256;10.084;2023-08-17T03:44:51;17.70;81.10
21682;DHT22;11002;48.256;10.084;2023-08-17T03:47:19;17.70;81.00
21682;DHT22;11002;48.256;10.084;2023-08-17T03:49:46;17.70;80.90
21682;DHT22;11002;48.256;10.084;2023-08-17T03:52:13;17.70;80.80
21682;DHT22;11002;48.256;10.084;2023-08-17T03:54:41;17.70;80.50
21682;DHT22;11002;48.256;10.084;2023-08-17T03:57:09;17.70;80.00
21682;DHT22;11002;48.256;10.084;2023-08-17T03:59:37;17.70;79.50
21682;DHT22;11002;48.256;10.084;2023-08-17T04:02:04;17.70;79.40
21682;DHT22;11002;48.256;10.084;2023-08-17T04:04:32;17.60;79.30
21682;DHT22;11002;48.256;10.084;2023-08-17T04:06:59;17.60;79.30
21682;DHT22;11002;48.256;10.084;2023-08-17T04:09:26;17.60;79.30
21682;DHT22;11002;48.256;10.084;2023-08-17T04:11:53;17.60;79.30
21682;DHT22;11002;48.256;10.084;2023-08-17T04:14:24;17.60;79.20
21682;DHT22;11002;48.256;10.084;2023-08-17T04:16:54;17.60;79.30
21682;DHT22;11002;48.256;10.084;2023-08-17T04:19:23;17.60;79.30
21682;DHT22;11002;48.256;10.084;2023-08-17T04:21:51;17.60;79.30
21682;DHT22;11002;48.256;10.084;2023-08-17T04:24:18;17.60;79.30
21682;DHT22;11002;48.256;10.084;2023-08-17T04:26:45;17.50;79.10
21682;DHT22;11002;48.256;10.084;2023-08-17T04:29:13;17.50;79.10
21682;DHT22;11002;48.256;10.084;2023-08-17T04:31:41;17.50;79.10
21682;DHT22;11002;48.256;10.084;2023-08-17T04:34:09;17.50;79.10
21682;DHT22;11002;48.256;10.084;2023-08-17T04:36:36;17.50;79.10
21682;DHT22;11002;48.256;10.084;2023-08-17T04:39:06;17.50;79.10
21682;DHT22;11002;48.256;10.084;2023-08-17T04:41:34;17.50;79.90
21682;DHT22;11002;48.256;10.084;2023-08-17T04:44:05;17.50;79.10
21682;DHT22;11002;48.256;10.084;2023-08-17T04:46:32;17.50;79.10
21682;DHT22;11002;48.256;10.084;2023-08-17T04:49:01;17.50;79.10
21682;DHT22;11002;48.256;10.084;2023-08-17T04:51:29;17.50;79.10
21682;DHT22;11002;48.256;10.084;2023-08-17T04:53:57;17.50;79.10
21682;DHT22;11002;48.256;10.084;2023-08-17T04:56:27;17.50;79.10
21682;DHT22;11002;48.256;10.084;2023-08-17T04:58:54;17.50;79.10
21682;DHT22;11002;48.256;10.084;2023-08-17T05:01:22;17.50;79.10
21682;DHT22;11002;48.256;10.084;2023-08-17T05:03:50;17.60;79.30
21682;DHT22;11002;48.256;10.084;2023-08-17T05:06:19;17.50;81.40
21682;DHT22;11002;48.256;10.084;2023-08-17T05:08:47;17.60;82.90
21682;DHT22;11002;48.256;10.084;2023-08-17T05:11:14;17.60;83.00
21682;DHT22;11002;48.256;10.084;2023-08-17T05:13:41;17.70;83.50
21682;DHT22;11002;48.256;10.084;2023-08-17T05:16:09;17.80;83.00
21682;DHT22;11002;48.256;10.084;2023-08-17T05:18:36;17.90;83.20
21682;DHT22;11002;48.256;10.084;2023-08-17T05:21:03;17.90;83.20
21682;DHT22;11002;48.256;10.084;2023-08-17T05:23:33;18.00;83.00
21682;DHT22;11002;48.256;10.084;2023-08-17T05:26:00;18.10;82.70
21682;DHT22;11002;48.256;10.084;2023-08-17T05:28:29;18.20;83.00
21682;DHT22;11002;48.256;10.084;2023-08-17T05:30:56;18.30;82.60
21682;DHT22;11002;48.256;10.084;2023-08-17T05:33:29;18.40;82.20
21682;DHT22;11002;48.256;10.084;2023-08-17T05:35:57;18.50;82.30
21682;DHT22;11002;48.256;10.084;2023-08-17T05:38:25;18.60;82.10
21682;DHT22;11002;48.256;10.084;2023-08-17T05:40:56;18.70;81.60
21682;DHT22;11002;48.256;10.084;2023-08-17T05:43:23;18.90;80.50
21682;DHT22;11002;48.256;10.084;2023-08-17T05:45:50;19.10;79.70
21682;DHT22;11002;48.256;10.084;2023-08-17T05:48:19;19.40;77.70
21682;DHT22;11002;48.256;10.084;2023-08-17T05:50:46;19.60;74.50
21682;DHT22;11002;48.256;10.084;2023-08-17T05:53:14;19.80;71.90
21682;DHT22;11002;48.256;10.084;2023-08-17T05:55:41;19.90;69.40
21682;DHT22;11002;48.256;10.084;2023-08-17T05:58:10;20.10;69.00
21682;DHT22;11002;48.256;10.084;2023-08-17T06:00:37;20.10;68.10
21682;DHT22;11002;48.256;10.084;2023-08-17T06:03:04;20.10;68.00
21682;DHT22;11002;48.256;10.084;2023-08-17T06:05:32;20.00;67.70
21682;DHT22;11002;48.256;10.084;2023-08-17T06:08:00;20.00;68.00
21682;DHT22;11002;48.256;10.084;2023-08-17T06:10:27;20.00;68.00
21682;DHT22;11002;48.256;10.084;2023-08-17T06:12:55;19.90;67.90
21682;DHT22;11002;48.256;10.084;2023-08-17T06:15:24;19.90;67.90
21682;DHT22;11002;48.256;10.084;2023-08-17T06:17:52;19.90;67.90
21682;DHT22;11002;48.256;10.084;2023-08-17T06:20:19;20.00;67.10
21682;DHT22;11002;48.256;10.084;2023-08-17T06:22:47;19.90;66.30
21682;DHT22;11002;48.256;10.084;2023-08-17T06:25:15;19.90;65.20
21682;DHT22;11002;48.256;10.084;2023-08-17T06:27:43;20.00;65.50
21682;DHT22;11002;48.256;10.084;2023-08-17T06:30:11;20.00;63.80
21682;DHT22;11002;48.256;10.084;2023-08-17T06:32:40;20.00;63.30
21682;DHT22;11002;48.256;10.084;2023-08-17T06:35:08;20.00;61.80
21682;DHT22;11002;48.256;10.084;2023-08-17T06:37:35;20.20;61.20
21682;DHT22;11002;48.256;10.084;2023-08-17T06:40:03;20.30;61.30
21682;DHT22;11002;48.256;10.084;2023-08-17T06:42:31;20.40;61.40
21682;DHT22;11002;48.256;10.084;2023-08-17T06:44:59;20.40;61.40
21682;DHT22;11002;48.256;10.084;2023-08-17T06:47:26;20.50;59.70
21682;DHT22;11002;48.256;10.084;2023-08-17T06:49:55;20.50;58.80
21682;DHT22;11002;48.256;10.084;2023-08-17T06:52:23;20.60;58.10
21682;DHT22;11002;48.256;10.084;2023-08-17T06:54:51;20.70;58.40
21682;DHT22;11002;48.256;10.084;2023-08-17T06:57:18;20.70;58.60
21682;DHT22;11002;48.256;10.084;2023-08-17T06:59:47;20.90;58.20
21682;DHT22;11002;48.256;10.084;2023-08-17T07:02:14;21.30;55.80
21682;DHT22;11002;48.256;10.084;2023-08-17T07:04:42;21.90;54.50
21682;DHT22;11002;48.256;10.084;2023-08-17T07:07:10;22.50;50.40
21682;DHT22;11002;48.256;10.084;2023-08-17T07:09:40;23.00;49.90
21682;DHT22;11002;48.256;10.084;2023-08-17T07:12:07;22.90;48.70
21682;DHT22;11002;48.256;10.084;2023-08-17T07:14:34;22.70;49.80
21682;DHT22;11002;48.256;10.084;2023-08-17T07:17:03;22.40;50.30
21682;DHT22;11002;48.256;10.084;2023-08-17T07:19:30;22.20;50.10
21682;DHT22;11002;48.256;10.084;2023-08-17T07:21:57;22.30;50.20
21682;DHT22;11002;48.256;10.084;2023-08-17T07:24:26;22.30;50.20
21682;DHT22;11002;48.256;10.084;2023-08-17T07:26:53;22.30;50.20
21682;DHT22;11002;48.256;10.084;2023-08-17T07:29:21;22.30;50.20
21682;DHT22;11002;48.256;10.084;2023-08-17T07:31:48;22.30;50.20
21682;DHT22;11002;48.256;10.084;2023-08-17T07:34:15;22.40;50.30
21682;DHT22;11002;48.256;10.084;2023-08-17T07:36:43;22.40;50.30
21682;DHT22;11002;48.256;10.084;2023-08-17T07:39:10;22.50;49.90
21682;DHT22;11002;48.256;10.084;2023-08-17T07:41:39;22.50;50.40
21682;DHT22;11002;48.256;10.084;2023-08-17T07:44:06;22.60;49.10
21682;DHT22;11002;48.256;10.084;2023-08-17T07:46:33;22.70;48.80
21682;DHT22;11002;48.256;10.084;2023-08-17T07:49:01;22.80;45.90
21682;DHT22;11002;48.256;10.084;2023-08-17T07:51:28;22.90;45.20
21682;DHT22;11002;48.256;10.084;2023-08-17T07:53:57;23.00;45.20
21682;DHT22;11002;48.256;10.084;2023-08-17T07:56:24;23.10;43.90
21682;DHT22;11002;48.256;10.084;2023-08-17T07:58:53;23.30;42.80
21682;DHT22;11002;48.256;10.084;2023-08-17T08:01:20;23.50;42.10
21682;DHT22;11002;48.256;10.084;2023-08-17T08:03:48;23.50;41.50
21682;DHT22;11002;48.256;10.084;2023-08-17T08:06:15;23.60;40.50
21682;DHT22;11002;48.256;10.084;2023-08-17T08:08:42;23.70;40.30
21682;DHT22;11002;48.256;10.084;2023-08-17T08:11:10;23.70;42.40
21682;DHT22;11002;48.256;10.084;2023-08-17T08:13:37;23.80;42.90
21682;DHT22;11002;48.256;10.084;2023-08-17T08:16:06;23.90;42.50
21682;DHT22;11002;48.256;10.084;2023-08-17T08:18:33;24.10;42.10
21682;DHT22;11002;48.256;10.084;2023-08-17T08:21:00;24.20;41.20
21682;DHT22;11002;48.256;10.084;2023-08-17T08:23:28;24.40;40.70
21682;DHT22;11002;48.256;10.084;2023-08-17T08:25:55;24.60;40.40
21682;DHT22;11002;48.256;10.084;2023-08-17T08:28:24;24.70;39.10
21682;DHT22;11002;48.256;10.084;2023-08-17T08:30:51;24.90;39.30
21682;DHT22;11002;48.256;10.084;2023-08-17T08:33:20;25.00;37.10
21682;DHT22;11002;48.256;10.084;2023-08-17T08:35:47;25.20;37.50
21682;DHT22;11002;48.256;10.084;2023-08-17T08:38:14;25.30;35.20
21682;DHT22;11002;48.256;10.084;2023-08-17T08:40:42;25.50;33.80
21682;DHT22;11002;48.256;10.084;2023-08-17T08:43:11;25.60;34.50
21682;DHT22;11002;48.256;10.084;2023-08-17T08:45:42;25.60;33.70
21682;DHT22;11002;48.256;10.084;2023-08-17T08:48:11;25.70;33.80
21682;DHT22;11002;48.256;10.084;2023-08-17T08:50:40;25.80;34.40
21682;DHT22;11002;48.256;10.084;2023-08-17T08:53:11;25.80;34.60
21682;DHT22;11002;48.256;10.084;2023-08-17T08:55:47;25.90;33.90
21682;DHT22;11002;48.256;10.084;2023-08-17T08:58:16;26.10;33.30
21682;DHT22;11002;48.256;10.084;2023-08-17T09:00:46;26.30;32.80
21682;DHT22;11002;48.256;10.084;2023-08-17T09:03:15;26.60;32.00
21682;DHT22;11002;48.256;10.084;2023-08-17T09:05:47;26.90;31.40
21682;DHT22;11002;48.256;10.084;2023-08-17T09:08:15;27.10;30.10
21682;DHT22;11002;48.256;10.084;2023-08-17T09:10:43;27.20;29.50
21682;DHT22;11002;48.256;10.084;2023-08-17T09:13:13;27.50;29.10
21682;DHT22;11002;48.256;10.084;2023-08-17T09:15:40;28.00;29.10
21682;DHT22;11002;48.256;10.084;2023-08-17T09:18:07;28.50;28.50
21682;DHT22;11002;48.256;10.084;2023-08-17T09:20:37;29.20;28.00
21682;DHT22;11002;48.256;10.084;2023-08-17T09:23:13;29.40;23.90
21682;DHT22;11002;48.256;10.084;2023-08-17T09:25:41;29.40;26.40
21682;DHT22;11002;48.256;10.084;2023-08-17T09:28:10;29.50;25.90
21682;DHT22;11002;48.256;10.084;2023-08-17T09:30:54;29.60;25.50
21682;DHT22;11002;48.256;10.084;2023-08-17T09:33:23;29.50;25.00
21682;DHT22;11002;48.256;10.084;2023-08-17T09:35:50;29.40;24.30
21682;DHT22;11002;48.256;10.084;2023-08-17T09:38:20;29.60;24.80
21682;DHT22;11002;48.256;10.084;2023-08-17T09:40:48;29.70;26.30
21682;DHT22;11002;48.256;10.084;2023-08-17T09:43:18;29.90;25.60
21682;DHT22;11002;48.256;10.084;2023-08-17T09:45:49;30.10;26.80
21682;DHT22;11002;48.256;10.084;2023-08-17T09:48:18;30.20;25.20
21682;DHT22;11002;48.256;10.084;2023-08-17T09:50:48;30.90;24.00
21682;DHT22;11002;48.256;10.084;2023-08-17T09:53:17;31.00;23.70
21682;DHT22;11002;48.256;10.084;2023-08-17T09:55:46;31.80;21.80
21682;DHT22;11002;48.256;10.084;2023-08-17T09:58:14;32.10;21.20
21682;DHT22;11002;48.256;10.084;2023-08-17T10:00:44;32.20;19.50
21682;DHT22;11002;48.256;10.084;2023-08-17T10:03:14;32.40;19.50
21682;DHT22;11002;48.256;10.084;2023-08-17T10:05:47;32.50;19.50
21682;DHT22;11002;48.256;10.084;2023-08-17T10:08:18;32.70;19.60
21682;DHT22;11002;48.256;10.084;2023-08-17T10:10:47;32.90;19.70
21682;DHT22;11002;48.256;10.084;2023-08-17T10:13:22;33.00;19.80
21682;DHT22;11002;48.256;10.084;2023-08-17T10:16:00;33.20;19.90
21682;DHT22;11002;48.256;10.084;2023-08-17T10:18:33;33.20;18.70
21682;DHT22;11002;48.256;10.084;2023-08-17T10:21:06;33.10;20.40
21682;DHT22;11002;48.256;10.084;2023-08-17T10:23:35;32.90;19.20
21682;DHT22;11002;48.256;10.084;2023-08-17T10:26:04;32.80;19.70
21682;DHT22;11002;48.256;10.084;2023-08-17T10:28:32;32.60;19.60
21682;DHT22;11002;48.256;10.084;2023-08-17T10:31:01;32.40;19.50
21682;DHT22;11002;48.256;10.084;2023-08-17T10:33:29;32.50;19.50
21682;DHT22;11002;48.256;10.084;2023-08-17T10:35:57;32.20;19.40
21682;DHT22;11002;48.256;10.084;2023-08-17T10:38:27;31.90;20.30
21682;DHT22;11002;48.256;10.084;2023-08-17T10:41:12;31.50;21.30
21682;DHT22;11002;48.256;10.084;2023-08-17T10:43:55;31.50;21.90
21682;DHT22;11002;48.256;10.084;2023-08-17T10:46:32;31.50;22.80
21682;DHT22;11002;48.256;10.084;2023-08-17T10:49:04;31.70;22.30
21682;DHT22;11002;48.256;10.084;2023-08-17T10:51:32;31.50;22.40
21682;DHT22;11002;48.256;10.084;2023-08-17T10:54:02;31.30;22.60
21682;DHT22;11002;48.256;10.084;2023-08-17T10:56:33;31.20;24.50
21682;DHT22;11002;48.256;10.084;2023-08-17T10:59:00;31.00;24.60
21682;DHT22;11002;48.256;10.084;2023-08-17T11:01:32;30.80;25.10
21682;DHT22;11002;48.256;10.084;2023-08-17T11:04:10;30.70;24.10
21682;DHT22;11002;48.256;10.084;2023-08-17T11:06:38;30.70;24.20
21682;DHT22;11002;48.256;10.084;2023-08-17T11:09:09;30.80;24.80
21682;DHT22;11002;48.256;10.084;2023-08-17T11:11:39;30.80;24.20
21682;DHT22;11002;48.256;10.084;2023-08-17T11:14:06;30.60;23.70
21682;DHT22;11002;48.256;10.084;2023-08-17T11:16:33;30.50;22.60
21682;DHT22;11002;48.256;10.084;2023-08-17T11:19:04;30.50;24.70
21682;DHT22;11002;48.256;10.084;2023-08-17T11:21:31;30.60;24.50
21682;DHT22;11002;48.256;10.084;2023-08-17T11:23:58;31.00;22.80
21682;DHT22;11002;48.256;10.084;2023-08-17T11:26:26;31.50;22.90
21682;DHT22;11002;48.256;10.084;2023-08-17T11:28:55;31.90;22.40
21682;DHT22;11002;48.256;10.084;2023-08-17T11:31:23;32.10;22.60
21682;DHT22;11002;48.256;10.084;2023-08-17T11:33:52;32.10;20.80
21682;DHT22;11002;48.256;10.084;2023-08-17T11:36:19;32.30;20.00
21682;DHT22;11002;48.256;10.084;2023-08-17T11:38:47;32.60;19.80
21682;DHT22;11002;48.256;10.084;2023-08-17T11:41:15;32.80;19.70
21682;DHT22;11002;48.256;10.084;2023-08-17T11:43:43;33.00;19.80
21682;DHT22;11002;48.256;10.084;2023-08-17T11:46:11;33.10;19.80
21682;DHT22;11002;48.256;10.084;2023-08-17T11:48:39;33.20;19.90
21682;DHT22;11002;48.256;10.084;2023-08-17T11:51:06;33.20;19.90
21682;DHT22;11002;48.256;10.084;2023-08-17T11:53:35;33.30;19.90
21682;DHT22;11002;48.256;10.084;2023-08-17T11:56:02;33.60;20.10
21682;DHT22;11002;48.256;10.084;2023-08-17T11:58:39;33.90;20.20
21682;DHT22;11002;48.256;10.084;2023-08-17T12:01:11;34.20;19.00
21682;DHT22;11002;48.256;10.084;2023-08-17T12:03:41;34.10;18.40
21682;DHT22;11002;48.256;10.084;2023-08-17T12:06:09;34.20;20.20
21682;DHT22;11002;48.256;10.084;2023-08-17T12:08:38;34.30;20.40
21682;DHT22;11002;48.256;10.084;2023-08-17T12:11:08;34.30;20.30
21682;DHT22;11002;48.256;10.084;2023-08-17T12:13:38;34.40;20.50
21682;DHT22;11002;48.256;10.084;2023-08-17T12:16:16;34.00;19.60
21682;DHT22;11002;48.256;10.084;2023-08-17T12:18:44;33.90;18.70
21682;DHT22;11002;48.256;10.084;2023-08-17T12:21:12;33.90;18.50
21682;DHT22;11002;48.256;10.084;2023-08-17T12:23:40;33.80;20.30
21682;DHT22;11002;48.256;10.084;2023-08-17T12:26:07;33.70;18.70
21682;DHT22;11002;48.256;10.084;2023-08-17T12:28:35;33.80;18.50
21682;DHT22;11002;48.256;10.084;2023-08-17T12:31:03;33.90;18.10
21682;DHT22;11002;48.256;10.084;2023-08-17T12:33:31;33.80;19.30
21682;DHT22;11002;48.256;10.084;2023-08-17T12:35:59;33.90;19.50
21682;DHT22;11002;48.256;10.084;2023-08-17T12:38:26;33.90;19.60
21682;DHT22;11002;48.256;10.084;2023-08-17T12:40:53;34.00;19.10
21682;DHT22;11002;48.256;10.084;2023-08-17T12:43:21;34.10;17.70
21682;DHT22;11002;48.256;10.084;2023-08-17T12:45:48;34.20;15.50
21682;DHT22;11002;48.256;10.084;2023-08-17T12:48:15;34.10;15.30
21682;DHT22;11002;48.256;10.084;2023-08-17T12:50:44;34.10;15.30
21682;DHT22;11002;48.256;10.084;2023-08-17T12:53:14;33.90;16.50
21682;DHT22;11002;48.256;10.084;2023-08-17T12:55:42;33.60;17.40
21682;DHT22;11002;48.256;10.084;2023-08-17T12:58:09;33.40;16.20
21682;DHT22;11002;48.256;10.084;2023-08-17T13:00:37;33.40;16.20
21682;DHT22;11002;48.256;10.084;2023-08-17T13:03:04;33.40;18.60
21682;DHT22;11002;48.256;10.084;2023-08-17T13:05:32;33.40;18.70
21682;DHT22;11002;48.256;10.084;2023-08-17T13:08:01;33.40;18.60
21682;DHT22;11002;48.256;10.084;2023-08-17T13:10:28;33.50;20.00
21682;DHT22;11002;48.256;10.084;2023-08-17T13:12:56;33.50;20.00
21682;DHT22;11002;48.256;10.084;2023-08-17T13:15:25;33.60;20.10
21682;DHT22;11002;48.256;10.084;2023-08-17T13:17:52;33.30;19.90
21682;DHT22;11002;48.256;10.084;2023-08-17T13:20:20;33.00;19.80
21682;DHT22;11002;48.256;10.084;2023-08-17T13:22:47;32.50;20.20
21682;DHT22;11002;48.256;10.084;2023-08-17T13:25:16;32.10;21.10
21682;DHT22;11002;48.256;10.084;2023-08-17T13:27:44;31.80;22.40
21682;DHT22;11002;48.256;10.084;2023-08-17T13:30:11;31.50;24.50
21682;DHT22;11002;48.256;10.084;2023-08-17T13:32:39;31.30;25.00
21682;DHT22;11002;48.256;10.084;2023-08-17T13:35:07;31.10;25.50
21682;DHT22;11002;48.256;10.084;2023-08-17T13:37:36;30.80;25.20
21682;DHT22;11002;48.256;10.084;2023-08-17T13:40:05;30.60;24.90
21682;DHT22;11002;48.256;10.084;2023-08-17T13:42:33;30.30;25.60
21682;DHT22;11002;48.256;10.084;2023-08-17T13:45:01;30.00;25.90
21682;DHT22;11002;48.256;10.084;2023-08-17T13:47:32;29.90;26.50
21682;DHT22;11002;48.256;10.084;2023-08-17T13:49:59;29.70;27.40
21682;DHT22;11002;48.256;10.084;2023-08-17T13:52:26;29.50;26.30
21682;DHT22;11002;48.256;10.084;2023-08-17T13:54:53;29.20;23.40
21682;DHT22;11002;48.256;10.084;2023-08-17T13:57:21;28.70;26.70
21682;DHT22;11002;48.256;10.084;2023-08-17T13:59:50;27.60;32.40
21682;DHT22;11002;48.256;10.084;2023-08-17T14:02:17;26.10;40.10
21682;DHT22;11002;48.256;10.084;2023-08-17T14:04:45;24.70;46.20
21682;DHT22;11002;48.256;10.084;2023-08-17T14:07:12;23.60;51.30
21682;DHT22;11002;48.256;10.084;2023-08-17T14:09:39;22.90;55.10
21682;DHT22;11002;48.256;10.084;2023-08-17T14:12:10;22.20;56.50
21682;DHT22;11002;48.256;10.084;2023-08-17T14:14:37;21.50;62.50
21682;DHT22;11002;48.256;10.084;2023-08-17T14:17:06;21.00;68.40
21682;DHT22;11002;48.256;10.084;2023-08-17T14:19:33;20.70;75.60
21682;DHT22;11002;48.256;10.084;2023-08-17T14:22:00;20.50;82.10
21682;DHT22;11002;48.256;10.084;2023-08-17T14:24:28;20.30;88.50
21682;DHT22;11002;48.256;10.084;2023-08-17T14:26:55;20.10;92.50
21682;DHT22;11002;48.256;10.084;2023-08-17T14:29:24;19.90;96.00
21682;DHT22;11002;48.256;10.084;2023-08-17T14:31:51;19.70;95.80
21682;DHT22;11002;48.256;10.084;2023-08-17T14:34:20;19.50;94.70
21682;DHT22;11002;48.256;10.084;2023-08-17T14:36:50;19.40;94.70
21682;DHT22;11002;48.256;10.084;2023-08-17T14:39:17;19.40;94.70
21682;DHT22;11002;48.256;10.084;2023-08-17T14:41:45;19.20;93.00
21682;DHT22;11002;48.256;10.084;2023-08-17T14:44:12;19.00;94.50
21682;DHT22;11002;48.256;10.084;2023-08-17T14:46:39;18.90;97.30
21682;DHT22;11002;48.256;10.084;2023-08-17T14:49:08;19.00;97.40
21682;DHT22;11002;48.256;10.084;2023-08-17T14:51:39;19.10;99.20
21682;DHT22;11002;48.256;10.084;2023-08-17T14:54:08;19.20;99.90
21682;DHT22;11002;48.256;10.084;2023-08-17T14:56:35;19.30;99.20
21682;DHT22;11002;48.256;10.084;2023-08-17T14:59:03;19.40;98.00
21682;DHT22;11002;48.256;10.084;2023-08-17T15:01:30;19.30;98.10
21682;DHT22;11002;48.256;10.084;2023-08-17T15:03:58;19.30;98.10
21682;DHT22;11002;48.256;10.084;2023-08-17T15:06:25;19.40;97.90
21682;DHT22;11002;48.256;10.084;2023-08-17T15:08:54;19.50;96.80
21682;DHT22;11002;48.256;10.084;2023-08-17T15:11:22;19.50;95.30
21682;DHT22;11002;48.256;10.084;2023-08-17T15:13:49;19.40;96.20
21682;DHT22;11002;48.256;10.084;2023-08-17T15:16:16;19.40;97.50
21682;DHT22;11002;48.256;10.084;2023-08-17T15:18:46;19.40;96.90
21682;DHT22;11002;48.256;10.084;2023-08-17T15:21:13;19.40;96.30
21682;DHT22;11002;48.256;10.084;2023-08-17T15:23:40;19.30;95.90